sensor_id;sensor_type;location;lat;lon;timestamp;pressure;altitude;pressure_sealevel;temperature;humidity
31044;BME280;17710;52.520;13.352;2023-06-24T00:01:00;101858.56;;;22.37;74.22
31044;BME280;17710;52.520;13.352;2023-06-24T00:03:27;101862.47;;;22.58;73.04
31044;BME280;17710;52.520;13.352;2023-06-24T00:05:54;101871.63;;;22.43;73.76
31044;BME280;17710;52.520;13.352;2023-06-24T00:08:22;101873.59;;;22.27;74.96
31044;BME280;17710;52.520;13.352;2023-06-24T00:10:49;101872.84;;;21.98;76.45
31044;BME280;17710;52.520;13.352;2023-06-24T00:13:15;101876.09;;;22.03;76.72
31044;BME280;17710;52.520;13.352;2023-06-24T00:15:42;101878.75;;;22.17;76.18
31044;BME280;17710;52.520;13.352;2023-06-24T00:18:09;101879.09;;;21.99;76.85
31044;BME280;17710;52.520;13.352;2023-06-24T00:20:37;101879.25;;;22.37;75.61
31044;BME280;17710;52.520;13.352;2023-06-24T00:23:04;101880.28;;;22.34;75.52
31044;BME280;17710;52.520;13.352;2023-06-24T00:25:30;101891.56;;;22.53;74.80
31044;BME280;17710;52.520;13.352;2023-06-24T00:27:57;101889.09;;;22.23;76.03
31044;BME280;17710;52.520;13.352;2023-06-24T00:30:23;101891.03;;;22.21;76.31
31044;BME280;17710;52.520;13.352;2023-06-24T00:32:50;101896.97;;;22.26;75.88
31044;BME280;17710;52.520;13.352;2023-06-24T00:35:17;101892.81;;;22.35;75.73
31044;BME280;17710;52.520;13.352;2023-06-24T00:37:44;101891.69;;;22.25;76.28
31044;BME280;17710;52.520;13.352;2023-06-24T00:40:11;101893.47;;;22.12;76.37
31044;BME280;17710;52.520;13.352;2023-06-24T00:42:40;101900.50;;;22.27;75.84
31044;BME280;17710;52.520;13.352;2023-06-24T00:45:08;101899.63;;;22.00;76.53
31044;BME280;17710;52.520;13.352;2023-06-24T00:47:35;101900.50;;;21.86;76.84
31044;BME280;17710;52.520;13.352;2023-06-24T00:50:01;101901.34;;;21.86;76.68
31044;BME280;17710;52.520;13.352;2023-06-24T00:52:28;101897.06;;;21.98;76.19
31044;BME280;17710;52.520;13.352;2023-06-24T00:54:55;101902.34;;;21.85;76.20
31044;BME280;17710;52.520;13.352;2023-06-24T00:57:22;101900.41;;;22.02;75.11
31044;BME280;17710;52.520;13.352;2023-06-24T00:59:50;101902.13;;;22.03;74.93
31044;BME280;17710;52.520;13.352;2023-06-24T01:02:18;101908.19;;;21.92;75.14
31044;BME280;17710;52.520;13.352;2023-06-24T01:04:45;101901.47;;;21.99;75.02
31044;BME280;17710;52.520;13.352;2023-06-24T01:07:12;101902.94;;;21.76;75.95
31044;BME280;17710;52.520;13.352;2023-06-24T01:09:38;101904.81;;;21.88;75.47
31044;BME280;17710;52.520;13.352;2023-06-24T01:12:07;101901.00;;;21.78;75.72
31044;BME280;17710;52.520;13.352;2023-06-24T01:14:34;101903.31;;;21.84;75.25
31044;BME280;17710;52.520;13.352;2023-06-24T01:17:05;101898.88;;;21.98;74.57
31044;BME280;17710;52.520;13.352;2023-06-24T01:19:47;101898.38;;;21.91;75.45
31044;BME280;17710;52.520;13.352;2023-06-24T01:22:30;101896.38;;;21.80;75.35
31044;BME280;17710;52.520;13.352;2023-06-24T01:25:07;101889.47;;;21.76;75.33
31044;BME280;17710;52.520;13.352;2023-06-24T01:27:58;101892.13;;;21.91;74.58
31044;BME280;17710;52.520;13.352;2023-06-24T01:30:48;101892.25;;;21.75;74.55
31044;BME280;17710;52.520;13.352;2023-06-24T01:33:23;101889.00;;;21.70;74.74
31044;BME280;17710;52.520;13.352;2023-06-24T01:35:52;101889.00;;;21.70;74.82
31044;BME280;17710;52.520;13.352;2023-06-24T01:38:22;101892.75;;;21.53;75.54
31044;BME280;17710;52.520;13.352;2023-06-24T01:40:51;101895.94;;;21.31;76.27
31044;BME280;17710;52.520;13.352;2023-06-24T01:43:18;101894.09;;;21.60;75.62
31044;BME280;17710;52.520;13.352;2023-06-24T01:45:50;101894.13;;;21.46;75.86
31044;BME280;17710;52.520;13.352;2023-06-24T01:48:22;101884.88;;;21.36;75.93
31044;BME280;17710;52.520;13.352;2023-06-24T01:50:55;101891.44;;;21.46;75.31
31044;BME280;17710;52.520;13.352;2023-06-24T01:53:23;101898.91;;;21.41;75.25
31044;BME280;17710;52.520;13.352;2023-06-24T01:55:51;101892.19;;;21.34;75.03
31044;BME280;17710;52.520;13.352;2023-06-24T01:58:19;101889.50;;;21.48;74.37
31044;BME280;17710;52.520;13.352;2023-06-24T02:00:46;101890.63;;;21.16;75.85
31044;BME280;17710;52.520;13.352;2023-06-24T02:03:14;101887.00;;;21.31;75.05
31044;BME280;17710;52.520;13.352;2023-06-24T02:05:44;101882.41;;;21.33;74.30
31044;BME280;17710;52.520;13.352;2023-06-24T02:08:11;101884.50;;;21.42;74.24
31044;BME280;17710;52.520;13.352;2023-06-24T02:10:39;101882.38;;;21.47;73.69
31044;BME280;17710;52.520;13.352;2023-06-24T02:13:08;101891.22;;;21.21;74.34
31044;BME280;17710;52.520;13.352;2023-06-24T02:15:35;101891.31;;;21.19;74.45
31044;BME280;17710;52.520;13.352;2023-06-24T02:18:04;101883.75;;;21.26;73.71
31044;BME280;17710;52.520;13.352;2023-06-24T02:20:31;101877.88;;;21.33;73.30
31044;BME280;17710;52.520;13.352;2023-06-24T02:22:59;101882.56;;;21.16;73.06
31044;BME280;17710;52.520;13.352;2023-06-24T02:25:27;101880.38;;;21.36;72.24
31044;BME280;17710;52.520;13.352;2023-06-24T02:27:54;101876.13;;;21.46;71.49
31044;BME280;17710;52.520;13.352;2023-06-24T02:30:21;101871.44;;;21.22;71.46
31044;BME280;17710;52.520;13.352;2023-06-24T02:32:49;101874.69;;;21.27;71.30
31044;BME280;17710;52.520;13.352;2023-06-24T02:35:16;101873.94;;;21.25;71.64
31044;BME280;17710;52.520;13.352;2023-06-24T02:37:43;101887.41;;;21.25;70.84
31044;BME280;17710;52.520;13.352;2023-06-24T02:40:11;101882.41;;;21.19;70.53
31044;BME280;17710;52.520;13.352;2023-06-24T02:42:38;101887.16;;;20.99;71.19
31044;BME280;17710;52.520;13.352;2023-06-24T02:45:05;101898.88;;;21.13;70.02
31044;BME280;17710;52.520;13.352;2023-06-24T02:47:32;101903.19;;;21.15;70.58
31044;BME280;17710;52.520;13.352;2023-06-24T02:50:00;101902.66;;;21.24;69.47
31044;BME280;17710;52.520;13.352;2023-06-24T02:52:27;101901.09;;;21.20;69.95
31044;BME280;17710;52.520;13.352;2023-06-24T02:54:55;101902.47;;;20.97;70.07
31044;BME280;17710;52.520;13.352;2023-06-24T02:57:22;101909.28;;;21.19;69.59
31044;BME280;17710;52.520;13.352;2023-06-24T02:59:50;101917.69;;;21.13;69.50
31044;BME280;17710;52.520;13.352;2023-06-24T03:02:17;101920.47;;;20.81;69.97
31044;BME280;17710;52.520;13.352;2023-06-24T03:04:43;101918.75;;;20.80;70.34
31044;BME280;17710;52.520;13.352;2023-06-24T03:07:11;101912.41;;;20.67;70.42
31044;BME280;17710;52.520;13.352;2023-06-24T03:09:37;101919.16;;;20.88;69.82
31044;BME280;17710;52.520;13.352;2023-06-24T03:12:06;101910.47;;;20.69;70.13
31044;BME280;17710;52.520;13.352;2023-06-24T03:14:33;101923.31;;;20.64;70.50
31044;BME280;17710;52.520;13.352;2023-06-24T03:17:00;101922.22;;;20.37;71.41
31044;BME280;17710;52.520;13.352;2023-06-24T03:19:26;101924.53;;;20.58;70.81
31044;BME280;17710;52.520;13.352;2023-06-24T03:21:52;101932.16;;;20.66;70.13
31044;BME280;17710;52.520;13.352;2023-06-24T03:24:19;101936.28;;;20.72;70.13
31044;BME280;17710;52.520;13.352;2023-06-24T03:26:45;101939.63;;;20.61;70.49
31044;BME280;17710;52.520;13.352;2023-06-24T03:29:11;101944.63;;;20.67;70.64
31044;BME280;17710;52.520;13.352;2023-06-24T03:31:39;101942.38;;;20.59;70.40
31044;BME280;17710;52.520;13.352;2023-06-24T03:34:09;101941.09;;;20.81;69.21
31044;BME280;17710;52.520;13.352;2023-06-24T03:36:35;101941.94;;;20.67;69.38
31044;BME280;17710;52.520;13.352;2023-06-24T03:39:03;101937.16;;;20.72;69.29
31044;BME280;17710;52.520;13.352;2023-06-24T03:41:29;101942.88;;;20.66;69.52
31044;BME280;17710;52.520;13.352;2023-06-24T03:43:56;101945.16;;;20.42;70.13
31044;BME280;17710;52.520;13.352;2023-06-24T03:46:22;101948.25;;;20.66;69.65
31044;BME280;17710;52.520;13.352;2023-06-24T03:48:50;101945.34;;;20.39;70.36
31044;BME280;17710;52.520;13.352;2023-06-24T03:51:16;101948.34;;;20.64;69.78
31044;BME280;17710;52.520;13.352;2023-06-24T03:53:43;101944.97;;;20.61;69.38
31044;BME280;17710;52.520;13.352;2023-06-24T03:56:09;101943.75;;;20.66;69.15
31044;BME280;17710;52.520;13.352;2023-06-24T03:58:35;101941.50;;;20.59;69.68
31044;BME280;17710;52.520;13.352;2023-06-24T04:01:02;101945.22;;;20.56;69.36
31044;BME280;17710;52.520;13.352;2023-06-24T04:03:28;101953.06;;;20.75;69.18
31044;BME280;17710;52.520;13.352;2023-06-24T04:05:58;101960.69;;;20.83;68.34
31044;BME280;17710;52.520;13.352;2023-06-24T04:08:26;101953.28;;;20.72;68.13
31044;BME280;17710;52.520;13.352;2023-06-24T04:10:54;101962.88;;;20.76;67.92
31044;BME280;17710;52.520;13.352;2023-06-24T04:13:20;101955.94;;;20.72;68.46
31044;BME280;17710;52.520;13.352;2023-06-24T04:15:47;101962.00;;;20.76;67.87
31044;BME280;17710;52.520;13.352;2023-06-24T04:18:13;101955.31;;;20.83;67.85
31044;BME280;17710;52.520;13.352;2023-06-24T04:20:40;101962.19;;;21.02;67.38
31044;BME280;17710;52.520;13.352;2023-06-24T04:23:08;101966.56;;;20.89;67.10
31044;BME280;17710;52.520;13.352;2023-06-24T04:25:36;101970.38;;;20.85;67.04
31044;BME280;17710;52.520;13.352;2023-06-24T04:28:02;101973.31;;;20.81;67.10
31044;BME280;17710;52.520;13.352;2023-06-24T04:30:29;101970.47;;;20.84;67.25
31044;BME280;17710;52.520;13.352;2023-06-24T04:32:56;101964.94;;;21.17;66.74
31044;BME280;17710;52.520;13.352;2023-06-24T04:35:22;101975.16;;;21.54;65.72
31044;BME280;17710;52.520;13.352;2023-06-24T04:37:49;101979.66;;;21.54;64.87
31044;BME280;17710;52.520;13.352;2023-06-24T04:40:17;101974.78;;;21.46;65.24
31044;BME280;17710;52.520;13.352;2023-06-24T04:42:44;101980.06;;;21.62;64.40
31044;BME280;17710;52.520;13.352;2023-06-24T04:45:10;101969.63;;;21.71;64.05
31044;BME280;17710;52.520;13.352;2023-06-24T04:47:36;101973.81;;;21.90;63.23
31044;BME280;17710;52.520;13.352;2023-06-24T04:50:03;101976.81;;;21.71;63.77
31044;BME280;17710;52.520;13.352;2023-06-24T04:52:29;101973.75;;;21.77;64.11
31044;BME280;17710;52.520;13.352;2023-06-24T04:54:56;101982.09;;;21.58;64.60
31044;BME280;17710;52.520;13.352;2023-06-24T04:57:26;101991.69;;;21.48;64.10
31044;BME280;17710;52.520;13.352;2023-06-24T04:59:53;101986.28;;;21.34;65.63
31044;BME280;17710;52.520;13.352;2023-06-24T05:02:19;101986.13;;;21.65;63.72
31044;BME280;17710;52.520;13.352;2023-06-24T05:04:46;101991.03;;;22.01;63.54
31044;BME280;17710;52.520;13.352;2023-06-24T05:07:13;101998.44;;;22.12;63.29
31044;BME280;17710;52.520;13.352;2023-06-24T05:09:39;101997.84;;;22.21;62.39
31044;BME280;17710;52.520;13.352;2023-06-24T05:12:07;101996.50;;;22.14;62.59
31044;BME280;17710;52.520;13.352;2023-06-24T05:14:35;101998.34;;;22.54;61.28
31044;BME280;17710;52.520;13.352;2023-06-24T05:17:02;101994.75;;;22.95;61.28
31044;BME280;17710;52.520;13.352;2023-06-24T05:19:28;101991.81;;;23.88;58.31
31044;BME280;17710;52.520;13.352;2023-06-24T05:21:55;101988.41;;;24.59;55.08
31044;BME280;17710;52.520;13.352;2023-06-24T05:24:21;101991.19;;;24.94;53.17
31044;BME280;17710;52.520;13.352;2023-06-24T05:26:49;101992.66;;;24.14;55.05
31044;BME280;17710;52.520;13.352;2023-06-24T05:29:15;101999.00;;;24.13;55.26
31044;BME280;17710;52.520;13.352;2023-06-24T05:31:43;102000.91;;;23.87;55.67
31044;BME280;17710;52.520;13.352;2023-06-24T05:34:11;102008.47;;;23.82;56.07
31044;BME280;17710;52.520;13.352;2023-06-24T05:36:37;102001.50;;;24.03;55.35
31044;BME280;17710;52.520;13.352;2023-06-24T05:39:04;102008.09;;;24.12;54.92
31044;BME280;17710;52.520;13.352;2023-06-24T05:41:33;102010.34;;;24.31;55.39
31044;BME280;17710;52.520;13.352;2023-06-24T05:44:02;102001.63;;;24.02;55.72
31044;BME280;17710;52.520;13.352;2023-06-24T05:46:29;102013.88;;;23.69;56.27
31044;BME280;17710;52.520;13.352;2023-06-24T05:48:57;102014.50;;;23.73;56.94
31044;BME280;17710;52.520;13.352;2023-06-24T05:51:23;102022.91;;;24.06;56.12
31044;BME280;17710;52.520;13.352;2023-06-24T05:53:50;102023.69;;;23.96;56.48
31044;BME280;17710;52.520;13.352;2023-06-24T05:56:17;102016.22;;;23.87;55.57
31044;BME280;17710;52.520;13.352;2023-06-24T05:58:44;102018.75;;;23.25;57.51
31044;BME280;17710;52.520;13.352;2023-06-24T06:01:10;102017.59;;;23.29;56.66
31044;BME280;17710;52.520;13.352;2023-06-24T06:03:36;102021.06;;;23.04;57.70
31044;BME280;17710;52.520;13.352;2023-06-24T06:06:04;102021.56;;;23.23;57.60
31044;BME280;17710;52.520;13.352;2023-06-24T06:08:32;102023.44;;;22.96;58.31
31044;BME280;17710;52.520;13.352;2023-06-24T06:10:58;102013.25;;;23.26;57.73
31044;BME280;17710;52.520;13.352;2023-06-24T06:13:27;102005.28;;;23.37;57.61
31044;BME280;17710;52.520;13.352;2023-06-24T06:15:53;102009.66;;;23.53;56.85
31044;BME280;17710;52.520;13.352;2023-06-24T06:18:19;102003.88;;;23.32;56.74
31044;BME280;17710;52.520;13.352;2023-06-24T06:20:46;102000.47;;;23.68;56.01
31044;BME280;17710;52.520;13.352;2023-06-24T06:23:14;102005.53;;;23.85;55.79
31044;BME280;17710;52.520;13.352;2023-06-24T06:25:41;102011.91;;;23.84;56.67
31044;BME280;17710;52.520;13.352;2023-06-24T06:28:07;102012.75;;;23.84;55.90
31044;BME280;17710;52.520;13.352;2023-06-24T06:30:33;102009.81;;;24.13;55.40
31044;BME280;17710;52.520;13.352;2023-06-24T06:33:00;102022.03;;;24.06;55.58
31044;BME280;17710;52.520;13.352;2023-06-24T06:35:27;102012.09;;;24.06;55.38
31044;BME280;17710;52.520;13.352;2023-06-24T06:37:53;102026.34;;;24.08;55.27
31044;BME280;17710;52.520;13.352;2023-06-24T06:40:21;102022.66;;;24.22;55.37
31044;BME280;17710;52.520;13.352;2023-06-24T06:42:48;102018.28;;;24.45;55.03
31044;BME280;17710;52.520;13.352;2023-06-24T06:45:15;102018.38;;;24.80;53.52
31044;BME280;17710;52.520;13.352;2023-06-24T06:47:41;102018.44;;;24.31;54.57
31044;BME280;17710;52.520;13.352;2023-06-24T06:50:08;102013.50;;;24.48;54.47
31044;BME280;17710;52.520;13.352;2023-06-24T06:52:34;102013.50;;;24.61;54.00
31044;BME280;17710;52.520;13.352;2023-06-24T06:55:01;102011.47;;;24.52;53.89
31044;BME280;17710;52.520;13.352;2023-06-24T06:57:29;102002.09;;;24.45;53.46
31044;BME280;17710;52.520;13.352;2023-06-24T06:59:56;102000.84;;;24.12;54.68
31044;BME280;17710;52.520;13.352;2023-06-24T07:02:22;102008.47;;;24.44;52.97
31044;BME280;17710;52.520;13.352;2023-06-24T07:04:48;102001.19;;;24.81;52.99
31044;BME280;17710;52.520;13.352;2023-06-24T07:07:16;102010.53;;;24.88;52.14
31044;BME280;17710;52.520;13.352;2023-06-24T07:09:42;102014.03;;;25.25;50.72
31044;BME280;17710;52.520;13.352;2023-06-24T07:12:09;102005.97;;;24.88;50.65
31044;BME280;17710;52.520;13.352;2023-06-24T07:14:37;102004.28;;;24.87;50.69
31044;BME280;17710;52.520;13.352;2023-06-24T07:17:04;102009.72;;;25.22;49.86
31044;BME280;17710;52.520;13.352;2023-06-24T07:19:30;102018.88;;;25.09;49.88
31044;BME280;17710;52.520;13.352;2023-06-24T07:21:56;102023.19;;;24.63;50.20
31044;BME280;17710;52.520;13.352;2023-06-24T07:24:23;102016.50;;;24.33;51.28
31044;BME280;17710;52.520;13.352;2023-06-24T07:26:49;102012.75;;;25.07;50.02
31044;BME280;17710;52.520;13.352;2023-06-24T07:29:15;102021.78;;;25.29;48.53
31044;BME280;17710;52.520;13.352;2023-06-24T07:31:43;102018.94;;;25.20;49.15
31044;BME280;17710;52.520;13.352;2023-06-24T07:34:09;102028.16;;;25.63;48.67
31044;BME280;17710;52.520;13.352;2023-06-24T07:36:36;102029.41;;;25.82;47.78
31044;BME280;17710;52.520;13.352;2023-06-24T07:39:02;102031.25;;;25.70;46.41
31044;BME280;17710;52.520;13.352;2023-06-24T07:41:28;102039.41;;;26.03;46.49
31044;BME280;17710;52.520;13.352;2023-06-24T07:43:55;102036.09;;;26.33;45.72
31044;BME280;17710;52.520;13.352;2023-06-24T07:46:21;102038.25;;;26.62;44.80
31044;BME280;17710;52.520;13.352;2023-06-24T07:48:49;102035.06;;;26.56;44.70
31044;BME280;17710;52.520;13.352;2023-06-24T07:51:15;102030.78;;;26.20;46.37
31044;BME280;17710;52.520;13.352;2023-06-24T07:53:41;102028.81;;;26.00;45.94
31044;BME280;17710;52.520;13.352;2023-06-24T07:56:08;102037.31;;;26.18;45.35
31044;BME280;17710;52.520;13.352;2023-06-24T07:58:34;102031.28;;;25.92;45.53
31044;BME280;17710;52.520;13.352;2023-06-24T08:01:03;102034.00;;;26.26;45.33
31044;BME280;17710;52.520;13.352;2023-06-24T08:03:29;102040.50;;;26.01;44.86
31044;BME280;17710;52.520;13.352;2023-06-24T08:05:57;102044.72;;;26.38;44.32
31044;BME280;17710;52.520;13.352;2023-06-24T08:08:23;102039.56;;;26.24;44.27
31044;BME280;17710;52.520;13.352;2023-06-24T08:10:49;102036.44;;;26.40;44.70
31044;BME280;17710;52.520;13.352;2023-06-24T08:13:16;102035.78;;;26.58;43.77
31044;BME280;17710;52.520;13.352;2023-06-24T08:15:42;102029.09;;;27.37;41.91
31044;BME280;17710;52.520;13.352;2023-06-24T08:18:09;102030.44;;;27.43;41.10
31044;BME280;17710;52.520;13.352;2023-06-24T08:20:36;102037.06;;;26.86;42.01
31044;BME280;17710;52.520;13.352;2023-06-24T08:23:04;102038.69;;;26.35;43.55
31044;BME280;17710;52.520;13.352;2023-06-24T08:25:30;102045.28;;;26.19;44.30
31044;BME280;17710;52.520;13.352;2023-06-24T08:27:56;102043.34;;;26.22;44.28
31044;BME280;17710;52.520;13.352;2023-06-24T08:30:23;102052.31;;;26.55;44.27
31044;BME280;17710;52.520;13.352;2023-06-24T08:32:49;102052.75;;;26.72;43.10
31044;BME280;17710;52.520;13.352;2023-06-24T08:35:16;102042.22;;;27.01;42.22
31044;BME280;17710;52.520;13.352;2023-06-24T08:37:42;102050.50;;;26.45;43.77
31044;BME280;17710;52.520;13.352;2023-06-24T08:40:11;102052.81;;;25.83;43.99
31044;BME280;17710;52.520;13.352;2023-06-24T08:42:37;102046.41;;;26.06;43.17
31044;BME280;17710;52.520;13.352;2023-06-24T08:45:05;102041.13;;;25.47;43.62
31044;BME280;17710;52.520;13.352;2023-06-24T08:47:32;102046.16;;;25.75;45.10
31044;BME280;17710;52.520;13.352;2023-06-24T08:50:03;102049.63;;;26.44;43.00
31044;BME280;17710;52.520;13.352;2023-06-24T08:52:32;102043.56;;;26.63;43.51
31044;BME280;17710;52.520;13.352;2023-06-24T08:54:59;102040.63;;;26.98;42.38
31044;BME280;17710;52.520;13.352;2023-06-24T08:57:26;102046.16;;;26.53;41.81
31044;BME280;17710;52.520;13.352;2023-06-24T08:59:53;102046.41;;;27.05;40.06
31044;BME280;17710;52.520;13.352;2023-06-24T09:02:19;102042.31;;;27.10;40.26
31044;BME280;17710;52.520;13.352;2023-06-24T09:04:46;102050.84;;;27.06;40.53
31044;BME280;17710;52.520;13.352;2023-06-24T09:07:12;102048.56;;;26.79;41.17
31044;BME280;17710;52.520;13.352;2023-06-24T09:09:43;102048.28;;;26.93;39.73
31044;BME280;17710;52.520;13.352;2023-06-24T09:12:11;102054.59;;;26.93;39.99
31044;BME280;17710;52.520;13.352;2023-06-24T09:14:39;102054.09;;;26.88;40.50
31044;BME280;17710;52.520;13.352;2023-06-24T09:17:06;102055.84;;;26.89;40.92
31044;BME280;17710;52.520;13.352;2023-06-24T09:19:34;102054.53;;;26.62;40.08
31044;BME280;17710;52.520;13.352;2023-06-24T09:22:02;102051.50;;;26.44;41.28
31044;BME280;17710;52.520;13.352;2023-06-24T09:24:30;102045.69;;;26.26;42.05
31044;BME280;17710;52.520;13.352;2023-06-24T09:26:56;102054.19;;;26.33;41.11
31044;BME280;17710;52.520;13.352;2023-06-24T09:29:25;102057.34;;;26.60;40.16
31044;BME280;17710;52.520;13.352;2023-06-24T09:31:53;102056.66;;;26.36;41.22
31044;BME280;17710;52.520;13.352;2023-06-24T09:34:21;102053.69;;;26.16;41.25
31044;BME280;17710;52.520;13.352;2023-06-24T09:36:51;102042.28;;;26.24;40.91
31044;BME280;17710;52.520;13.352;2023-06-24T09:39:17;102036.81;;;26.46;39.96
31044;BME280;17710;52.520;13.352;2023-06-24T09:41:48;102034.69;;;26.61;38.14
31044;BME280;17710;52.520;13.352;2023-06-24T09:44:16;102038.13;;;26.63;37.72
31044;BME280;17710;52.520;13.352;2023-06-24T09:46:44;102043.22;;;26.34;38.76
31044;BME280;17710;52.520;13.352;2023-06-24T09:49:12;102042.78;;;26.72;38.00
31044;BME280;17710;52.520;13.352;2023-06-24T09:51:40;102045.38;;;26.74;38.18
31044;BME280;17710;52.520;13.352;2023-06-24T09:54:08;102030.59;;;26.67;38.66
31044;BME280;17710;52.520;13.352;2023-06-24T09:56:35;102030.47;;;27.11;38.69
31044;BME280;17710;52.520;13.352;2023-06-24T09:59:03;102031.44;;;26.89;38.41
31044;BME280;17710;52.520;13.352;2023-06-24T10:01:31;102031.94;;;26.72;39.52
31044;BME280;17710;52.520;13.352;2023-06-24T10:03:58;102026.50;;;26.83;37.70
31044;BME280;17710;52.520;13.352;2023-06-24T10:06:26;102023.91;;;26.82;37.30
31044;BME280;17710;52.520;13.352;2023-06-24T10:08:52;102026.44;;;26.63;38.51
31044;BME280;17710;52.520;13.352;2023-06-24T10:11:18;102021.41;;;26.58;38.34
31044;BME280;17710;52.520;13.352;2023-06-24T10:13:45;102021.00;;;26.63;37.98
31044;BME280;17710;52.520;13.352;2023-06-24T10:16:12;102013.97;;;26.71;38.09
31044;BME280;17710;52.520;13.352;2023-06-24T10:18:39;102012.38;;;26.69;38.66
31044;BME280;17710;52.520;13.352;2023-06-24T10:21:07;102012.41;;;27.01;38.27
31044;BME280;17710;52.520;13.352;2023-06-24T10:23:39;102015.59;;;27.26;37.83
31044;BME280;17710;52.520;13.352;2023-06-24T10:26:07;102010.91;;;27.49;37.95
31044;BME280;17710;52.520;13.352;2023-06-24T10:29:08;102008.28;;;27.06;37.56
31044;BME280;17710;52.520;13.352;2023-06-24T10:31:51;102013.72;;;27.06;37.71
31044;BME280;17710;52.520;13.352;2023-06-24T10:34:22;102017.53;;;27.35;38.14
31044;BME280;17710;52.520;13.352;2023-06-24T10:36:53;102013.81;;;27.36;37.10
31044;BME280;17710;52.520;13.352;2023-06-24T10:42:28;102011.31;;;26.92;38.69
31044;BME280;17710;52.520;13.352;2023-06-24T10:44:56;102006.03;;;26.79;40.35
31044;BME280;17710;52.520;13.352;2023-06-24T10:47:23;101998.69;;;26.59;40.81
31044;BME280;17710;52.520;13.352;2023-06-24T10:49:50;101994.25;;;26.69;40.79
31044;BME280;17710;52.520;13.352;2023-06-24T10:52:18;101993.56;;;26.88;39.12
31044;BME280;17710;52.520;13.352;2023-06-24T10:54:45;102001.19;;;26.94;38.33
31044;BME280;17710;52.520;13.352;2023-06-24T10:57:12;102000.13;;;27.17;37.35
31044;BME280;17710;52.520;13.352;2023-06-24T10:59:40;101998.31;;;27.07;37.98
31044;BME280;17710;52.520;13.352;2023-06-24T11:02:07;101998.38;;;27.16;38.43
31044;BME280;17710;52.520;13.352;2023-06-24T11:04:42;101990.38;;;27.35;37.78
31044;BME280;17710;52.520;13.352;2023-06-24T11:07:08;101996.53;;;27.17;37.40
31044;BME280;17710;52.520;13.352;2023-06-24T11:09:35;101985.75;;;27.26;37.38
31044;BME280;17710;52.520;13.352;2023-06-24T11:12:02;101990.38;;;27.15;37.73
31044;BME280;17710;52.520;13.352;2023-06-24T11:14:29;101994.16;;;27.23;37.58
31044;BME280;17710;52.520;13.352;2023-06-24T11:17:00;101993.22;;;27.13;37.66
31044;BME280;17710;52.520;13.352;2023-06-24T11:19:27;101989.44;;;27.05;38.18
31044;BME280;17710;52.520;13.352;2023-06-24T11:21:53;101996.31;;;26.77;38.55
31044;BME280;17710;52.520;13.352;2023-06-24T11:24:19;101984.69;;;26.54;38.50
31044;BME280;17710;52.520;13.352;2023-06-24T11:26:46;101994.41;;;26.56;39.20
31044;BME280;17710;52.520;13.352;2023-06-24T11:29:12;102001.34;;;26.16;39.48
31044;BME280;17710;52.520;13.352;2023-06-24T11:31:38;101985.25;;;26.03;39.46
31044;BME280;17710;52.520;13.352;2023-06-24T11:34:08;101989.50;;;26.50;39.02
31044;BME280;17710;52.520;13.352;2023-06-24T11:36:35;101981.28;;;26.73;39.62
31044;BME280;17710;52.520;13.352;2023-06-24T11:39:02;101979.09;;;26.98;38.50
31044;BME280;17710;52.520;13.352;2023-06-24T11:41:29;101981.22;;;26.95;38.77
31044;BME280;17710;52.520;13.352;2023-06-24T11:43:57;101983.19;;;26.61;38.78
31044;BME280;17710;52.520;13.352;2023-06-24T11:46:24;101979.31;;;26.75;38.76
31044;BME280;17710;52.520;13.352;2023-06-24T11:48:51;101981.09;;;26.96;38.79
31044;BME280;17710;52.520;13.352;2023-06-24T11:51:18;101980.72;;;27.22;37.72
31044;BME280;17710;52.520;13.352;2023-06-24T11:53:46;101978.75;;;27.24;37.16
31044;BME280;17710;52.520;13.352;2023-06-24T11:56:12;101980.00;;;26.88;38.27
31044;BME280;17710;52.520;13.352;2023-06-24T11:58:39;101972.91;;;27.28;38.00
31044;BME280;17710;52.520;13.352;2023-06-24T12:01:06;101980.06;;;27.50;36.53
31044;BME280;17710;52.520;13.352;2023-06-24T12:03:33;101977.47;;;28.09;36.71
31044;BME280;17710;52.520;13.352;2023-06-24T12:06:00;101974.47;;;28.12;34.81
31044;BME280;17710;52.520;13.352;2023-06-24T12:08:27;101973.81;;;28.20;35.22
31044;BME280;17710;52.520;13.352;2023-06-24T12:10:54;101966.66;;;28.19;34.39
31044;BME280;17710;52.520;13.352;2023-06-24T12:13:20;101964.41;;;28.34;35.43
31044;BME280;17710;52.520;13.352;2023-06-24T12:15:47;101961.56;;;28.45;35.55
31044;BME280;17710;52.520;13.352;2023-06-24T12:18:13;101970.28;;;28.39;34.48
31044;BME280;17710;52.520;13.352;2023-06-24T12:20:40;101961.81;;;27.92;33.95
31044;BME280;17710;52.520;13.352;2023-06-24T12:23:08;101976.47;;;28.10;34.75
31044;BME280;17710;52.520;13.352;2023-06-24T12:25:36;101972.16;;;28.48;33.93
31044;BME280;17710;52.520;13.352;2023-06-24T12:28:02;101967.00;;;28.05;34.35
31044;BME280;17710;52.520;13.352;2023-06-24T12:30:29;101964.88;;;28.58;34.61
31044;BME280;17710;52.520;13.352;2023-06-24T12:32:55;101958.75;;;28.75;34.16
31044;BME280;17710;52.520;13.352;2023-06-24T12:35:21;101953.56;;;28.72;34.39
31044;BME280;17710;52.520;13.352;2023-06-24T12:37:50;101962.19;;;28.87;33.51
31044;BME280;17710;52.520;13.352;2023-06-24T12:40:16;101960.31;;;28.68;34.05
31044;BME280;17710;52.520;13.352;2023-06-24T12:42:44;101953.56;;;28.53;33.50
31044;BME280;17710;52.520;13.352;2023-06-24T12:45:10;101959.72;;;28.65;33.81